sensor_id;sensor_type;location;lat;lon;timestamp;pressure;altitude;pressure_sealevel;temperature;humidity
26775;BME280;14362;51.902;7.626;2023-07-13T00:02:31;100779.06;;;18.13;100.00
26775;BME280;14362;51.902;7.626;2023-07-13T00:06:34;100780.56;;;18.07;100.00
26775;BME280;14362;51.902;7.626;2023-07-13T00:10:39;100777.69;;;18.03;100.00
26775;BME280;14362;51.902;7.626;2023-07-13T00:14:40;100780.03;;;18.01;100.00
26775;BME280;14362;51.902;7.626;2023-07-13T00:18:42;100788.13;;;17.84;100.00
26775;BME280;14362;51.902;7.626;2023-07-13T00:22:45;100783.50;;;17.72;100.00
26775;BME280;14362;51.902;7.626;2023-07-13T00:26:47;100781.97;;;17.59;100.00
26775;BME280;14362;51.902;7.626;2023-07-13T00:30:49;100790.88;;;17.61;100.00
26775;BME280;14362;51.902;7.626;2023-07-13T00:34:50;100784.28;;;17.73;100.00
26775;BME280;14362;51.902;7.626;2023-07-13T00:38:53;100790.75;;;17.73;100.00
26775;BME280;14362;51.902;7.626;2023-07-13T00:42:57;100796.97;;;17.82;100.00
26775;BME280;14362;51.902;7.626;2023-07-13T00:46:59;100801.94;;;17.70;100.00
26775;BME280;14362;51.902;7.626;2023-07-13T00:51:01;100795.94;;;17.71;100.00
26775;BME280;14362;51.902;7.626;2023-07-13T00:55:05;100795.28;;;17.59;100.00
26775;BME280;14362;51.902;7.626;2023-07-13T00:59:08;100788.06;;;17.61;100.00
26775;BME280;14362;51.902;7.626;2023-07-13T01:03:11;100788.50;;;17.45;100.00
26775;BME280;14362;51.902;7.626;2023-07-13T01:07:13;100785.69;;;17.45;100.00
26775;BME280;14362;51.902;7.626;2023-07-13T01:11:21;100791.03;;;17.49;100.00
26775;BME280;14362;51.902;7.626;2023-07-13T01:15:40;100786.88;;;17.44;100.00
26775;BME280;14362;51.902;7.626;2023-07-13T01:19:44;100784.88;;;17.44;100.00
26775;BME280;14362;51.902;7.626;2023-07-13T01:23:47;100787.00;;;17.32;100.00
26775;BME280;14362;51.902;7.626;2023-07-13T01:27:48;100788.25;;;17.34;100.00
26775;BME280;14362;51.902;7.626;2023-07-13T01:31:50;100778.16;;;17.33;100.00
26775;BME280;14362;51.902;7.626;2023-07-13T01:35:51;100771.16;;;17.27;100.00
26775;BME280;14362;51.902;7.626;2023-07-13T01:39:54;100786.28;;;17.19;100.00
26775;BME280;14362;51.902;7.626;2023-07-13T01:43:55;100779.00;;;17.18;100.00
26775;BME280;14362;51.902;7.626;2023-07-13T01:47:57;100772.53;;;17.18;100.00
26775;BME280;14362;51.902;7.626;2023-07-13T01:51:58;100780.19;;;17.17;100.00
26775;BME280;14362;51.902;7.626;2023-07-13T01:56:01;100789.00;;;17.16;100.00
26775;BME280;14362;51.902;7.626;2023-07-13T02:00:04;100786.53;;;17.14;100.00
26775;BME280;14362;51.902;7.626;2023-07-13T02:04:06;100785.19;;;17.08;100.00
26775;BME280;14362;51.902;7.626;2023-07-13T02:08:08;100799.66;;;17.07;100.00
26775;BME280;14362;51.902;7.626;2023-07-13T02:12:10;100803.28;;;17.07;100.00
26775;BME280;14362;51.902;7.626;2023-07-13T02:16:12;100800.38;;;17.04;100.00
26775;BME280;14362;51.902;7.626;2023-07-13T02:20:13;100800.38;;;17.04;100.00
26775;BME280;14362;51.902;7.626;2023-07-13T02:24:15;100812.81;;;17.03;100.00
26775;BME280;14362;51.902;7.626;2023-07-13T02:28:19;100804.38;;;17.03;100.00
26775;BME280;14362;51.902;7.626;2023-07-13T02:32:20;100800.38;;;17.04;100.00
26775;BME280;14362;51.902;7.626;2023-07-13T02:36:22;100794.59;;;16.97;100.00
26775;BME280;14362;51.902;7.626;2023-07-13T02:40:23;100801.84;;;16.98;100.00
26775;BME280;14362;51.902;7.626;2023-07-13T02:44:26;100791.41;;;16.98;100.00
26775;BME280;14362;51.902;7.626;2023-07-13T02:48:28;100791.78;;;16.97;100.00
26775;BME280;14362;51.902;7.626;2023-07-13T02:52:29;100789.22;;;16.92;100.00
26775;BME280;14362;51.902;7.626;2023-07-13T02:56:32;100793.56;;;16.89;100.00
26775;BME280;14362;51.902;7.626;2023-07-13T03:00:37;100790.69;;;16.86;100.00
26775;BME280;14362;51.902;7.626;2023-07-13T03:04:41;100802.97;;;16.78;100.00
26775;BME280;14362;51.902;7.626;2023-07-13T03:08:44;100803.75;;;16.78;100.00
26775;BME280;14362;51.902;7.626;2023-07-13T03:12:45;100796.16;;;16.79;100.00
26775;BME280;14362;51.902;7.626;2023-07-13T03:16:48;100804.88;;;16.74;100.00
26775;BME280;14362;51.902;7.626;2023-07-13T03:20:53;100806.84;;;16.73;100.00
26775;BME280;14362;51.902;7.626;2023-07-13T03:24:57;100810.03;;;16.72;100.00
26775;BME280;14362;51.902;7.626;2023-07-13T03:28:59;100819.59;;;16.67;100.00
26775;BME280;14362;51.902;7.626;2023-07-13T03:33:01;100816.66;;;16.64;100.00
26775;BME280;14362;51.902;7.626;2023-07-13T03:37:03;100825.09;;;16.64;100.00
26775;BME280;14362;51.902;7.626;2023-07-13T03:41:05;100817.84;;;16.63;100.00
26775;BME280;14362;51.902;7.626;2023-07-13T03:45:08;100822.13;;;16.57;100.00
26775;BME280;14362;51.902;7.626;2023-07-13T03:49:11;100835.72;;;16.55;100.00
26775;BME280;14362;51.902;7.626;2023-07-13T03:53:12;100836.44;;;16.52;100.00
26775;BME280;14362;51.902;7.626;2023-07-13T03:57:14;100835.19;;;16.49;100.00
26775;BME280;14362;51.902;7.626;2023-07-13T04:01:17;100830.44;;;16.53;100.00
26775;BME280;14362;51.902;7.626;2023-07-13T04:05:20;100839.25;;;16.52;100.00
26775;BME280;14362;51.902;7.626;2023-07-13T04:09:21;100840.91;;;16.53;100.00
26775;BME280;14362;51.902;7.626;2023-07-13T04:13:23;100843.16;;;16.47;100.00
26775;BME280;14362;51.902;7.626;2023-07-13T04:17:25;100850.06;;;16.50;100.00
26775;BME280;14362;51.902;7.626;2023-07-13T04:21:29;100848.88;;;16.51;100.00
26775;BME280;14362;51.902;7.626;2023-07-13T04:25:31;100845.59;;;16.49;100.00
26775;BME280;14362;51.902;7.626;2023-07-13T04:29:33;100846.06;;;16.51;100.00
26775;BME280;14362;51.902;7.626;2023-07-13T04:33:34;100854.97;;;16.53;100.00
26775;BME280;14362;51.902;7.626;2023-07-13T04:37:37;100862.56;;;16.52;100.00
26775;BME280;14362;51.902;7.626;2023-07-13T04:41:38;100855.88;;;16.57;100.00
26775;BME280;14362;51.902;7.626;2023-07-13T04:45:41;100863.16;;;16.58;100.00
26775;BME280;14362;51.902;7.626;2023-07-13T04:49:42;100851.91;;;16.58;100.00
26775;BME280;14362;51.902;7.626;2023-07-13T04:53:45;100861.13;;;16.58;100.00
26775;BME280;14362;51.902;7.626;2023-07-13T04:57:47;100867.22;;;16.60;100.00
26775;BME280;14362;51.902;7.626;2023-07-13T05:01:48;100866.25;;;16.68;100.00
26775;BME280;14362;51.902;7.626;2023-07-13T05:05:57;100870.31;;;16.71;100.00
26775;BME280;14362;51.902;7.626;2023-07-13T05:10:00;100865.63;;;16.75;100.00
26775;BME280;14362;51.902;7.626;2023-07-13T05:14:02;100879.06;;;16.81;100.00
26775;BME280;14362;51.902;7.626;2023-07-13T05:18:03;100882.06;;;16.88;100.00
26775;BME280;14362;51.902;7.626;2023-07-13T05:22:04;100886.59;;;16.93;100.00
26775;BME280;14362;51.902;7.626;2023-07-13T05:26:07;100883.78;;;16.93;100.00
26775;BME280;14362;51.902;7.626;2023-07-13T05:30:09;100896.03;;;17.00;100.00
26775;BME280;14362;51.902;7.626;2023-07-13T05:34:12;100889.06;;;17.10;100.00
26775;BME280;14362;51.902;7.626;2023-07-13T05:38:13;100892.31;;;17.12;100.00
26775;BME280;14362;51.902;7.626;2023-07-13T05:42:16;100893.59;;;17.45;100.00
26775;BME280;14362;51.902;7.626;2023-07-13T05:46:17;100898.28;;;18.25;100.00
26775;BME280;14362;51.902;7.626;2023-07-13T05:50:19;100901.22;;;18.92;100.00
26775;BME280;14362;51.902;7.626;2023-07-13T05:54:21;100903.94;;;19.56;100.00
26775;BME280;14362;51.902;7.626;2023-07-13T05:58:24;100910.78;;;19.81;100.00
26775;BME280;14362;51.902;7.626;2023-07-13T06:02:25;100915.50;;;19.22;100.00
26775;BME280;14362;51.902;7.626;2023-07-13T06:06:27;100906.41;;;19.35;100.00
26775;BME280;14362;51.902;7.626;2023-07-13T06:10:28;100924.88;;;19.52;100.00
26775;BME280;14362;51.902;7.626;2023-07-13T06:14:31;100914.28;;;19.45;100.00
26775;BME280;14362;51.902;7.626;2023-07-13T06:18:33;100908.91;;;19.62;100.00
26775;BME280;14362;51.902;7.626;2023-07-13T06:22:37;100917.41;;;19.40;100.00
26775;BME280;14362;51.902;7.626;2023-07-13T06:26:38;100913.63;;;19.55;100.00
26775;BME280;14362;51.902;7.626;2023-07-13T06:30:41;100926.47;;;19.27;100.00
26775;BME280;14362;51.902;7.626;2023-07-13T06:34:43;100923.34;;;19.32;100.00
26775;BME280;14362;51.902;7.626;2023-07-13T06:38:44;100928.91;;;19.51;100.00
26775;BME280;14362;51.902;7.626;2023-07-13T06:42:45;100928.59;;;19.56;100.00
26775;BME280;14362;51.902;7.626;2023-07-13T06:46:48;100938.34;;;19.36;100.00
26775;BME280;14362;51.902;7.626;2023-07-13T06:50:50;100940.03;;;19.40;100.00
26775;BME280;14362;51.902;7.626;2023-07-13T06:54:53;100945.44;;;19.49;100.00
26775;BME280;14362;51.902;7.626;2023-07-13T06:58:54;100944.94;;;19.43;100.00
26775;BME280;14362;51.902;7.626;2023-07-13T07:02:57;100954.75;;;19.49;100.00
26775;BME280;14362;51.902;7.626;2023-07-13T07:06:58;100946.16;;;19.68;100.00
26775;BME280;14362;51.902;7.626;2023-07-13T07:11:00;100949.81;;;19.94;100.00
26775;BME280;14362;51.902;7.626;2023-07-13T07:15:01;100953.91;;;19.71;100.00
26775;BME280;14362;51.902;7.626;2023-07-13T07:19:04;100962.63;;;19.88;100.00
26775;BME280;14362;51.902;7.626;2023-07-13T07:23:06;100960.84;;;19.99;100.00
26775;BME280;14362;51.902;7.626;2023-07-13T07:27:07;100959.50;;;20.19;100.00
26775;BME280;14362;51.902;7.626;2023-07-13T07:31:09;100966.84;;;20.24;100.00
26775;BME280;14362;51.902;7.626;2023-07-13T07:35:11;100971.53;;;20.42;100.00
26775;BME280;14362;51.902;7.626;2023-07-13T07:39:13;100965.22;;;20.52;100.00
26775;BME280;14362;51.902;7.626;2023-07-13T07:43:15;100970.19;;;20.33;100.00
26775;BME280;14362;51.902;7.626;2023-07-13T07:47:16;100967.16;;;20.48;100.00
26775;BME280;14362;51.902;7.626;2023-07-13T07:51:19;100970.25;;;20.65;100.00
26775;BME280;14362;51.902;7.626;2023-07-13T07:55:20;100979.94;;;20.64;100.00
26775;BME280;14362;51.902;7.626;2023-07-13T07:59:22;100967.88;;;20.71;100.00
26775;BME280;14362;51.902;7.626;2023-07-13T08:03:23;100974.34;;;20.71;100.00
26775;BME280;14362;51.902;7.626;2023-07-13T08:07:26;100974.22;;;20.61;100.00
26775;BME280;14362;51.902;7.626;2023-07-13T08:11:28;100973.34;;;20.57;100.00
26775;BME280;14362;51.902;7.626;2023-07-13T08:15:29;100965.91;;;20.75;100.00
26775;BME280;14362;51.902;7.626;2023-07-13T08:19:30;100967.34;;;20.62;100.00
26775;BME280;14362;51.902;7.626;2023-07-13T08:23:33;100970.19;;;20.62;100.00
26775;BME280;14362;51.902;7.626;2023-07-13T08:27:35;100972.66;;;20.67;100.00
26775;BME280;14362;51.902;7.626;2023-07-13T08:31:36;100968.81;;;20.49;100.00
26775;BME280;14362;51.902;7.626;2023-07-13T08:35:38;100971.03;;;20.33;100.00
26775;BME280;14362;51.902;7.626;2023-07-13T08:39:40;100963.75;;;20.36;100.00
26775;BME280;14362;51.902;7.626;2023-07-13T08:43:45;100968.56;;;20.32;100.00
26775;BME280;14362;51.902;7.626;2023-07-13T08:47:52;100963.75;;;20.36;100.00
26775;BME280;14362;51.902;7.626;2023-07-13T08:51:58;100959.06;;;20.47;100.00
26775;BME280;14362;51.902;7.626;2023-07-13T08:56:05;100963.13;;;20.49;100.00
26775;BME280;14362;51.902;7.626;2023-07-13T09:00:12;100967.03;;;20.70;100.00
26775;BME280;14362;51.902;7.626;2023-07-13T09:04:19;100964.22;;;20.70;100.00
26775;BME280;14362;51.902;7.626;2023-07-13T09:08:38;100964.22;;;20.70;100.00
26775;BME280;14362;51.902;7.626;2023-07-13T09:12:57;100967.69;;;20.57;100.00
26775;BME280;14362;51.902;7.626;2023-07-13T09:17:01;100960.44;;;20.60;100.00
26775;BME280;14362;51.902;7.626;2023-07-13T09:21:08;100968.72;;;20.75;100.00
26775;BME280;14362;51.902;7.626;2023-07-13T09:25:23;100966.66;;;20.72;100.00
26775;BME280;14362;51.902;7.626;2023-07-13T09:29:30;100965.69;;;20.90;100.00
26775;BME280;14362;51.902;7.626;2023-07-13T09:33:33;100966.63;;;21.01;100.00
26775;BME280;14362;51.902;7.626;2023-07-13T09:37:35;100957.59;;;21.29;100.00
26775;BME280;14362;51.902;7.626;2023-07-13T09:41:41;100968.56;;;21.34;100.00
26775;BME280;14362;51.902;7.626;2023-07-13T09:45:46;100972.69;;;21.40;100.00
26775;BME280;14362;51.902;7.626;2023-07-13T09:49:54;100960.97;;;21.41;100.00
26775;BME280;14362;51.902;7.626;2023-07-13T09:53:55;100974.19;;;21.27;100.00
26775;BME280;14362;51.902;7.626;2023-07-13T09:57:57;100973.34;;;21.23;100.00
26775;BME280;14362;51.902;7.626;2023-07-13T10:02:00;100978.97;;;21.19;100.00
26775;BME280;14362;51.902;7.626;2023-07-13T10:06:11;100974.13;;;21.23;97.78
26775;BME280;14362;51.902;7.626;2023-07-13T10:10:15;100973.63;;;21.51;100.00
26775;BME280;14362;51.902;7.626;2023-07-13T10:14:21;100975.13;;;21.84;100.00
26775;BME280;14362;51.902;7.626;2023-07-13T10:18:28;100976.78;;;21.92;93.28
26775;BME280;14362;51.902;7.626;2023-07-13T10:22:36;100976.75;;;21.85;89.72
26775;BME280;14362;51.902;7.626;2023-07-13T10:26:46;100980.38;;;21.82;92.82
26775;BME280;14362;51.902;7.626;2023-07-13T10:30:49;100983.16;;;21.75;89.62
26775;BME280;14362;51.902;7.626;2023-07-13T10:34:54;100981.97;;;21.80;90.65
26775;BME280;14362;51.902;7.626;2023-07-13T10:39:00;100979.69;;;21.99;93.85
26775;BME280;14362;51.902;7.626;2023-07-13T10:43:09;100993.53;;;22.08;90.16
26775;BME280;14362;51.902;7.626;2023-07-13T10:47:15;100996.88;;;22.17;88.70
26775;BME280;14362;51.902;7.626;2023-07-13T10:51:19;100979.78;;;22.13;85.08
26775;BME280;14362;51.902;7.626;2023-07-13T10:55:37;101000.09;;;22.19;83.53
26775;BME280;14362;51.902;7.626;2023-07-13T10:59:39;100998.75;;;21.99;78.99
26775;BME280;14362;51.902;7.626;2023-07-13T11:03:48;100997.09;;;21.94;79.80
26775;BME280;14362;51.902;7.626;2023-07-13T11:08:03;100995.81;;;21.85;82.40
26775;BME280;14362;51.902;7.626;2023-07-13T11:12:10;100992.19;;;21.88;82.05
26775;BME280;14362;51.902;7.626;2023-07-13T11:16:44;100989.91;;;22.07;79.93
26775;BME280;14362;51.902;7.626;2023-07-13T11:20:48;100996.94;;;22.31;77.21
26775;BME280;14362;51.902;7.626;2023-07-13T11:24:56;100988.13;;;22.46;73.24
26775;BME280;14362;51.902;7.626;2023-07-13T11:29:08;100985.84;;;22.73;74.65
26775;BME280;14362;51.902;7.626;2023-07-13T11:33:13;100976.91;;;22.77;70.76
26775;BME280;14362;51.902;7.626;2023-07-13T11:37:16;100978.16;;;22.83;69.56
26775;BME280;14362;51.902;7.626;2023-07-13T11:41:22;100969.25;;;22.92;71.55
26775;BME280;14362;51.902;7.626;2023-07-13T11:45:26;100980.22;;;23.00;69.95
26775;BME280;14362;51.902;7.626;2023-07-13T11:49:31;100972.03;;;22.81;69.35
26775;BME280;14362;51.902;7.626;2023-07-13T11:53:34;100978.16;;;22.80;72.03
26775;BME280;14362;51.902;7.626;2023-07-13T11:57:41;100978.19;;;22.94;73.20
26775;BME280;14362;51.902;7.626;2023-07-13T12:01:49;100968.44;;;22.98;70.20
26775;BME280;14362;51.902;7.626;2023-07-13T12:06:00;100975.44;;;23.22;70.45
26775;BME280;14362;51.902;7.626;2023-07-13T12:10:02;100986.03;;;23.32;68.18
26775;BME280;14362;51.902;7.626;2023-07-13T12:14:05;100964.09;;;23.50;67.06
26775;BME280;14362;51.902;7.626;2023-07-13T12:18:12;100967.34;;;23.45;64.68
26775;BME280;14362;51.902;7.626;2023-07-13T12:22:16;100971.84;;;23.74;63.30
26775;BME280;14362;51.902;7.626;2023-07-13T12:26:18;100971.44;;;23.72;56.88
26775;BME280;14362;51.902;7.626;2023-07-13T12:30:27;100973.84;;;23.49;57.77
26775;BME280;14362;51.902;7.626;2023-07-13T12:34:31;100984.38;;;23.20;59.43
26775;BME280;14362;51.902;7.626;2023-07-13T12:38:32;100980.22;;;23.00;61.50
26775;BME280;14362;51.902;7.626;2023-07-13T12:42:34;100987.09;;;22.89;62.82
26775;BME280;14362;51.902;7.626;2023-07-13T12:46:51;100973.69;;;22.86;60.61
26775;BME280;14362;51.902;7.626;2023-07-13T12:50:55;100980.72;;;23.20;63.06
26775;BME280;14362;51.902;7.626;2023-07-13T12:55:01;100992.50;;;23.18;60.28
26775;BME280;14362;51.902;7.626;2023-07-13T12:59:04;101009.00;;;22.85;63.69
26775;BME280;14362;51.902;7.626;2023-07-13T13:03:17;101014.22;;;22.66;65.48
26775;BME280;14362;51.902;7.626;2023-07-13T13:07:23;101012.47;;;22.47;60.85
26775;BME280;14362;51.902;7.626;2023-07-13T13:11:27;101011.69;;;22.47;63.82
26775;BME280;14362;51.902;7.626;2023-07-13T13:15:29;101021.41;;;22.49;65.77
26775;BME280;14362;51.902;7.626;2023-07-13T13:19:32;101029.53;;;22.47;64.43
26775;BME280;14362;51.902;7.626;2023-07-13T13:23:33;101033.53;;;22.39;67.90
26775;BME280;14362;51.902;7.626;2023-07-13T13:27:35;101037.59;;;22.35;72.46
26775;BME280;14362;51.902;7.626;2023-07-13T13:31:37;101055.50;;;21.95;68.21
26775;BME280;14362;51.902;7.626;2023-07-13T13:35:40;101071.09;;;21.69;68.92
26775;BME280;14362;51.902;7.626;2023-07-13T13:39:44;101077.59;;;21.36;76.65
26775;BME280;14362;51.902;7.626;2023-07-13T13:43:46;101088.88;;;21.00;95.30
26775;BME280;14362;51.902;7.626;2023-07-13T13:47:49;101090.88;;;20.70;100.00
26775;BME280;14362;51.902;7.626;2023-07-13T13:51:53;101098.31;;;20.52;100.00
26775;BME280;14362;51.902;7.626;2023-07-13T13:55:55;101121.56;;;20.39;100.00
26775;BME280;14362;51.902;7.626;2023-07-13T13:59:57;101117.19;;;20.19;100.00
26775;BME280;14362;51.902;7.626;2023-07-13T14:03:58;101122.03;;;19.96;100.00
26775;BME280;14362;51.902;7.626;2023-07-13T14:08:01;101126.44;;;19.71;100.00
26775;BME280;14362;51.902;7.626;2023-07-13T14:12:04;101127.19;;;19.68;100.00
26775;BME280;14362;51.902;7.626;2023-07-13T14:16:09;101128.91;;;19.54;100.00
26775;BME280;14362;51.902;7.626;2023-07-13T14:20:12;101123.66;;;19.52;100.00
26775;BME280;14362;51.902;7.626;2023-07-13T14:24:17;101120.91;;;19.37;100.00
26775;BME280;14362;51.902;7.626;2023-07-13T14:28:22;101122.53;;;19.38;100.00
26775;BME280;14362;51.902;7.626;2023-07-13T14:32:24;101108.91;;;19.43;100.00
26775;BME280;14362;51.902;7.626;2023-07-13T14:36:28;101112.25;;;19.49;100.00
26775;BME280;14362;51.902;7.626;2023-07-13T14:40:31;101110.31;;;19.53;100.00
26775;BME280;14362;51.902;7.626;2023-07-13T14:44:33;101118.84;;;19.56;100.00
26775;BME280;14362;51.902;7.626;2023-07-13T14:48:34;101114.59;;;19.65;100.00
26775;BME280;14362;51.902;7.626;2023-07-13T14:52:37;101102.91;;;19.89;100.00
26775;BME280;14362;51.902;7.626;2023-07-13T14:56:40;101096.44;;;20.11;100.00
26775;BME280;14362;51.902;7.626;2023-07-13T15:00:41;101086.56;;;20.50;100.00
26775;BME280;14362;51.902;7.626;2023-07-13T15:04:42;101088.59;;;20.79;100.00
26775;BME280;14362;51.902;7.626;2023-07-13T15:08:45;101082.66;;;20.87;100.00
26775;BME280;14362;51.902;7.626;2023-07-13T15:12:48;101085.78;;;20.79;100.00
26775;BME280;14362;51.902;7.626;2023-07-13T15:16:52;101077.34;;;20.82;100.00
26775;BME280;14362;51.902;7.626;2023-07-13T15:20:54;101070.34;;;20.76;100.00
26775;BME280;14362;51.902;7.626;2023-07-13T15:24:57;101086.31;;;20.88;100.00
26775;BME280;14362;51.902;7.626;2023-07-13T15:29:02;101076.34;;;21.01;100.00
26775;BME280;14362;51.902;7.626;2023-07-13T15:33:11;101079.03;;;21.23;100.00
26775;BME280;14362;51.902;7.626;2023-07-13T15:37:14;101073.13;;;21.35;100.00
26775;BME280;14362;51.902;7.626;2023-07-13T15:41:18;101076.56;;;21.55;100.00
26775;BME280;14362;51.902;7.626;2023-07-13T15:45:23;101067.44;;;21.71;100.00
26775;BME280;14362;51.902;7.626;2023-07-13T15:49:25;101071.25;;;21.89;100.00
26775;BME280;14362;51.902;7.626;2023-07-13T15:53:30;101073.19;;;21.78;100.00
26775;BME280;14362;51.902;7.626;2023-07-13T15:57:33;101077.56;;;21.69;100.00
26775;BME280;14362;51.902;7.626;2023-07-13T16:01:35;101069.81;;;21.66;100.00
26775;BME280;14362;51.902;7.626;2023-07-13T16:05:37;101073.91;;;21.69;100.00
26775;BME280;14362;51.902;7.626;2023-07-13T16:09:41;101073.06;;;21.65;93.33
26775;BME280;14362;51.902;7.626;2023-07-13T16:13:43;101078.66;;;21.58;93.42
26775;BME280;14362;51.902;7.626;2023-07-13T16:17:47;101078.13;;;21.49;85.17
26775;BME280;14362;51.902;7.626;2023-07-13T16:21:50;101080.53;;;21.47;87.81
26775;BME280;14362;51.902;7.626;2023-07-13T16:25:52;101084.94;;;21.41;89.16
26775;BME280;14362;51.902;7.626;2023-07-13T16:29:54;101084.81;;;21.30;91.26
26775;BME280;14362;51.902;7.626;2023-07-13T16:33:56;101081.88;;;21.23;89.75
26775;BME280;14362;51.902;7.626;2023-07-13T16:37:58;101096.44;;;21.22;91.75
26775;BME280;14362;51.902;7.626;2023-07-13T16:42:02;101103.19;;;21.10;97.81
26775;BME280;14362;51.902;7.626;2023-07-13T16:46:03;101111.13;;;20.98;100.00
26775;BME280;14362;51.902;7.626;2023-07-13T16:50:14;101120.75;;;20.90;100.00
26775;BME280;14362;51.902;7.626;2023-07-13T16:54:15;101115.34;;;20.56;100.00
26775;BME280;14362;51.902;7.626;2023-07-13T16:58:19;101112.59;;;20.33;100.00
26775;BME280;14362;51.902;7.626;2023-07-13T17:02:33;101122.38;;;20.13;100.00
26775;BME280;14362;51.902;7.626;2023-07-13T17:06:36;101125.00;;;20.03;100.00
26775;BME280;14362;51.902;7.626;2023-07-13T17:10:38;101132.03;;;19.90;100.00
26775;BME280;14362;51.902;7.626;2023-07-13T17:14:42;101127.75;;;19.77;100.00
26775;BME280;14362;51.902;7.626;2023-07-13T17:18:43;101123.16;;;19.69;100.00
26775;BME280;14362;51.902;7.626;2023-07-13T17:22:46;101105.25;;;19.61;100.00
26775;BME280;14362;51.902;7.626;2023-07-13T17:26:48;101097.00;;;19.53;100.00
26775;BME280;14362;51.902;7.626;2023-07-13T17:30:53;101107.47;;;19.53;100.00
26775;BME280;14362;51.902;7.626;2023-07-13T17:34:55;101100.13;;;19.48;100.00
26775;BME280;14362;51.902;7.626;2023-07-13T17:38:58;101100.19;;;19.52;100.00
26775;BME280;14362;51.902;7.626;2023-07-13T17:42:59;101108.63;;;19.48;100.00
26775;BME280;14362;51.902;7.626;2023-07-13T17:47:01;101111.00;;;19.46;100.00
26775;BME280;14362;51.902;7.626;2023-07-13T17:51:08;101114.97;;;19.42;100.00
26775;BME280;14362;51.902;7.626;2023-07-13T17:55:16;101116.22;;;19.44;100.00
26775;BME280;14362;51.902;7.626;2023-07-13T17:59:20;101113.78;;;19.43;100.00
26775;BME280;14362;51.902;7.626;2023-07-13T18:03:25;101110.50;;;19.41;100.00
26775;BME280;14362;51.902;7.626;2023-07-13T18:07:31;101111.81;;;19.47;100.00
26775;BME280;14362;51.902;7.626;2023-07-13T18:11:35;101102.53;;;19.46;100.00
26775;BME280;14362;51.902;7.626;2023-07-13T18:15:38;101113.66;;;19.58;100.00
26775;BME280;14362;51.902;7.626;2023-07-13T18:19:41;101113.34;;;19.63;100.00
26775;BME280;14362;51.902;7.626;2023-07-13T18:23:43;101110.97;;;19.65;100.00
26775;BME280;14362;51.902;7.626;2023-07-13T18:27:47;101108.94;;;19.65;100.00
26775;BME280;14362;51.902;7.626;2023-07-13T18:31:49;101108.06;;;19.61;100.00
26775;BME280;14362;51.902;7.626;2023-07-13T18:35:50;101107.63;;;19.59;100.00
26775;BME280;14362;51.902;7.626;2023-07-13T18:39:52;101112.84;;;19.58;100.00
26775;BME280;14362;51.902;7.626;2023-07-13T18:43:55;101125.34;;;19.57;100.00
26775;BME280;14362;51.902;7.626;2023-07-13T18:47:56;101128.84;;;19.50;100.00
26775;BME280;14362;51.902;7.626;2023-07-13T18:51:58;101127.56;;;19.48;100.00
26775;BME280;14362;51.902;7.626;2023-07-13T18:56:00;101121.91;;;19.48;100.00
26775;BME280;14362;51.902;7.626;2023-07-13T19:00:03;101123.88;;;19.44;100.00
26775;BME280;14362;51.902;7.626;2023-07-13T19:04:28;101128.19;;;19.38;100.00
26775;BME280;14362;51.902;7.626;2023-07-13T19:08:30;101134.22;;;19.36;100.00
26775;BME280;14362;51.902;7.626;2023-07-13T19:12:32;101128.78;;;19.28;100.00
26775;BME280;14362;51.902;7.626;2023-07-13T19:16:34;101130.75;;;19.24;100.00
26775;BME280;14362;51.902;7.626;2023-07-13T19:20:36;101130.13;;;19.15;100.00
26775;BME280;14362;51.902;7.626;2023-07-13T19:24:37;101144.53;;;19.10;100.00
26775;BME280;14362;51.902;7.626;2023-07-13T19:28:41;101141.94;;;19.01;100.00
26775;BME280;14362;51.902;7.626;2023-07-13T19:32:45;101148.19;;;18.91;100.00
26775;BME280;14362;51.902;7.626;2023-07-13T19:36:47;101144.00;;;18.85;100.00
26775;BME280;14362;51.902;7.626;2023-07-13T19:40:49;101142.13;;;18.74;100.00
26775;BME280;14362;51.902;7.626;2023-07-13T19:44:55;101150.78;;;18.65;100.00
26775;BME280;14362;51.902;7.626;2023-07-13T19:48:58;101150.72;;;18.62;100.00
26775;BME280;14362;51.902;7.626;2023-07-13T19:53:00;101167.41;;;18.52;100.00
26775;BME280;14362;51.902;7.626;2023-07-13T19:57:01;101167.22;;;18.45;100.00
26775;BME280;14362;51.902;7.626;2023-07-13T20:01:03;101180.81;;;18.39;100.00
26775;BME280;14362;51.902;7.626;2023-07-13T20:05:07;101176.16;;;18.31;100.00
26775;BME280;14362;51.902;7.626;2023-07-13T20:09:14;101180.31;;;18.22;100.00
26775;BME280;14362;51.902;7.626;2023-07-13T20:13:17;101182.72;;;18.20;100.00
26775;BME280;14362;51.902;7.626;2023-07-13T20:17:28;101175.16;;;18.08;100.00
26775;BME280;14362;51.902;7.626;2023-07-13T20:21:32;101177.41;;;18.03;100.00
26775;BME280;14362;51.902;7.626;2023-07-13T20:25:34;101185.31;;;17.97;100.00
26775;BME280;14362;51.902;7.626;2023-07-13T20:29:35;101194.88;;;17.93;100.00
26775;BME280;14362;51.902;7.626;2023-07-13T20:33:37;101195.25;;;17.91;100.00
26775;BME280;14362;51.902;7.626;2023-07-13T20:37:39;101201.88;;;17.83;100.00
26775;BME280;14362;51.902;7.626;2023-07-13T20:41:42;101197.78;;;17.81;100.00
26775;BME280;14362;51.902;7.626;2023-07-13T20:45:44;101192.88;;;17.78;100.00
26775;BME280;14362;51.902;7.626;2023-07-13T20:49:48;101197.50;;;17.70;100.00
26775;BME280;14362;51.902;7.626;2023-07-13T20:53:54;101197.38;;;17.67;100.00
26775;BME280;14362;51.902;7.626;2023-07-13T20:57:56;101196.56;;;17.66;100.00
26775;BME280;14362;51.902;7.626;2023-07-13T21:01:58;101200.94;;;17.64;100.00